Airfield :
LOGIN :

Register | Disclaimer

   EN    FR    IT 

 










Legend :    VFR   Marginal VFR   IFR   Intensive IFR   Very Intensive IFR
Visi :
Ceiling :
>= 8 km
>= 3000ft
5 to 8 km
1000 to 3000 ft
1500m to 5 km
500 to 1000 ft
800 to 1500m
200 to 500 ft
< 800m
< 200 ft
Symbols :   Thunderstorms  Fog  Heavy snow  Heavy precipitations  Wind > 20 kt
SIGMETs :     Misc.  Thunderstorms  Icing  Turbulence  Mountain Waves  Volcanic Ashes






- Airport Elevation : 63 ft
- IATA code : BZM


EHWO - Woensdrecht Airbase

CURRENT METAR :
  • 192255Z AUTO 07002KT 3200 BR NCD 04/03 Q1019 YLO

EXPIRED METARs :
  • 192238Z AUTO 08004KT 5000 BR FEW050 04/04 Q1019 WHT
  • 192225Z AUTO 06004KT 2900 BR FEW062 05/04 Q1019 YLO
  • 192155Z AUTO 10003KT 6000 BR FEW056 06/05 Q1019 WHT
  • 192125Z AUTO 07004KT 7000 BR OVC055 05/04 Q1019 WHT
  • 192116Z AUTO 10003KT 9999 SCT053 SCT058 06/04 Q1019 BLU
  • 192104Z AUTO 09004KT 6000 BR SCT053 06/05 Q1019 WHT
  • 192055Z AUTO 07003KT 7000 BR FEW055 06/04 Q1019 WHT
  • 192038Z AUTO 10002KT 7000 BR BKN055 BKN061 06/04 Q1019 WHT
  • 192025Z AUTO 10003KT 8000 BR SCT056 06/05 Q1019 BLU
  • 191955Z AUTO 07003KT 9000 BR NCD 06/05 Q1019 BLU

Expired Forecast.



MET'MAP, your aeronautical weather chart ! - Copyright ORBIFLY December 2007 - Disclaimer

ORBIFLY MET'MAP TEAM :

Programming & Development : Alexandra Zaïnal
Concept & original design : Baudouin d'Aumeries
Assistance for programming : Marc-Olivier Méhu
Technical & hardware support : Manuel Goepfert

Contact : metmap@orbifly.com




SOURCES & CREDITS :

   NOAA